Date,TemperatureHighF,TemperatureAvgF,TemperatureLowF,DewpointHighF,DewpointAvgF,DewpointLowF,HumidityHigh,HumidityAvg,HumidityLow,PressureMaxIn,PressureMinIn,WindSpeedMaxMPH,WindSpeedAvgMPH,GustSpeedMaxMPH,PrecipitationSumIn
2013-1-1,50,45,40,49,43,33,100,91,70,30.04,29.86,4,0,7,0.25
2013-1-2,49,46,40,49,43,38,98,91,72,30.12,29.84,9,0,9,0.20
2013-1-3,46,40,30,40,37,27,96,88,69,30.20,30.07,4,0,4,0.00
2013-1-4,51,37,24,34,27,23,96,69,38,30.26,30.13,14,1,14,0.00
2013-1-5,49,36,25,35,28,22,93,74,43,30.34,30.18,6,0,6,0.00
2013-1-6,51,42,34,42,38,32,96,86,66,30.19,29.99,4,0,4,0.00
2013-1-7,52,38,28,37,32,27,97,81,51,30.37,30.12,12,0,12,0.00
2013-1-8,56,41,27,44,36,26,97,85,56,30.40,30.30,5,0,5,0.00
2013-1-9,68,49,34,54,44,32,100,85,58,30.38,30.28,6,0,6,0.00
2013-1-10,63,52,44,51,46,42,98,83,53,30.46,30.34,4,0,7,0.00
2013-1-11,49,47,42,49,44,39,98,92,68,30.36,30.08,4,0,4,0.19
2013-1-12,73,57,49,66,55,48,100,94,75,30.10,30.02,7,0,7,0.00
2013-1-13,75,60,50,64,57,50,100,90,65,30.07,29.97,12,0,12,0.01
2013-1-14,69,62,56,66,60,54,99,94,84,30.07,30.00,5,0,5,0.00
2013-1-15,61,47,45,60,46,44,98,96,91,30.16,29.98,12,1,12,0.01
2013-1-16,49,46,43,49,46,42,98,98,97,30.01,29.91,6,0,6,0.19
2013-1-17,50,47,34,50,46,33,98,97,93,30.09,29.79,15,1,15,0.73
2013-1-18,46,37,29,34,31,27,100,81,50,30.47,30.07,9,1,9,0.37
2013-1-19,54,36,24,36,29,22,97,80,44,30.44,30.11,2,0,7,0.10
2013-1-20,64,50,32,40,36,30,96,62,36,30.09,29.92,15,1,15,0.01
2013-1-21,60,43,28,37,31,22,97,66,37,30.02,29.80,10,0,10,0.00
2013-1-22,40,33,25,27,13,4,72,45,22,30.22,29.89,13,1,13,0.00
2013-1-23,42,28,17,21,15,8,87,61,35,30.32,29.99,12,0,12,0.00
2013-1-24,39,31,25,27,16,6,87,56,30,30.45,29.90,15,1,15,0.00
2013-1-25,28,25,20,27,17,8,100,74,46,30.47,30.06,5,0,5,0.00
2013-1-26,41,32,27,36,29,25,96,91,75,30.35,30.04,4,0,4,0.23
2013-1-27,42,32,22,30,27,20,96,84,58,30.54,30.34,6,0,6,0.06
2013-1-28,51,41,32,49,37,29,95,86,67,30.45,30.16,14,0,14,0.05
2013-1-29,73,55,41,60,51,40,98,86,62,30.17,29.99,15,1,15,0.00
2013-1-30,73,66,52,66,62,51,99,88,76,30.00,29.32,23,2,23,0.26
2013-1-31,61,46,29,58,33,23,93,61,37,29.95,29.39,22,4,23,0.10
2013-2-1,40,34,26,30,17,7,88,52,27,30.32,29.82,20,2,20,0.00
2013-2-2,46,33,18,38,18,10,90,58,31,30.35,29.97,12,1,12,0.00
2013-2-3,51,41,29,38,31,24,95,70,44,29.97,29.78,14,1,14,0.00
2013-2-4,49,36,25,31,26,22,93,69,40,30.09,29.92,9,0,9,0.00
2013-2-5,62,45,32,39,34,28,92,70,39,29.95,29.81,11,1,11,0.00
2013-2-6,64,44,29,40,31,25,97,67,23,30.21,29.90,11,1,11,0.00
2013-2-7,47,39,34,42,36,29,96,89,73,30.26,29.91,7,1,9,0.36
2013-2-8,56,46,40,48,41,30,97,84,59,30.00,29.75,12,2,12,0.51
2013-2-9,54,38,26,31,26,21,94,66,29,30.30,29.99,13,1,13,0.00
2013-2-10,55,38,24,41,28,22,96,71,33,30.43,30.13,9,0,9,0.04
2013-2-11,62,55,43,60,54,41,99,95,90,30.15,29.84,12,1,12,0.10
2013-2-12,61,52,46,54,40,30,96,66,32,30.01,29.82,11,1,11,0.00
2013-2-13,47,46,43,47,44,38,97,94,81,29.88,29.55,12,0,12,0.10
2013-2-14,53,40,29,39,34,28,97,80,50,30.00,29.77,7,0,7,0.00
2013-2-15,63,43,28,42,34,26,98,75,35,30.03,29.85,11,0,11,0.00
2013-2-16,45,37,31,38,33,26,95,86,71,29.90,29.76,9,0,9,0.34
2013-2-17,39,30,22,26,17,11,85,61,32,30.23,29.86,18,2,18,0.02
2013-2-18,54,34,17,29,22,14,95,65,32,30.35,30.19,5,0,9,0.00
2013-2-19,50,40,28,50,37,25,98,91,71,30.19,29.79,11,1,11,0.22
2013-2-20,54,39,27,34,26,19,95,64,26,30.07,29.90,16,1,16,0.00
2013-2-21,56,39,24,32,24,20,91,59,26,30.18,30.05,10,1,10,0.00
2013-2-22,44,37,34,36,34,26,96,90,51,30.28,30.05,4,0,5,0.47
2013-2-23,43,40,36,42,39,35,98,97,96,30.05,29.75,4,0,4,0.73
2013-2-24,63,49,36,46,41,32,98,79,33,29.97,29.73,12,1,12,0.06
2013-2-25,42,37,32,34,28,24,92,69,53,30.16,29.97,14,1,14,0.00
2013-2-26,56,45,35,56,42,27,98,90,65,30.07,29.48,17,1,17,0.88
2013-2-27,61,49,36,44,41,34,97,76,50,29.72,29.55,13,1,13,0.00
2013-2-28,51,41,31,41,32,28,98,75,43,29.79,29.63,16,1,16,0.00
2013-3-1,49,39,26,35,30,25,95,72,48,29.85,29.77,9,1,11,0.00
2013-3-2,48,38,28,32,28,22,95,69,47,29.86,29.74,10,1,10,0.00
2013-3-3,47,36,26,26,22,20,85,58,41,29.92,29.78,14,1,14,0.00
2013-3-4,52,35,21,26,20,17,90,60,27,30.06,29.92,14,1,14,0.00
2013-3-5,48,41,31,44,36,26,97,85,57,30.01,29.48,5,0,5,0.30
2013-3-6,48,43,37,46,34,28,98,72,52,29.97,29.44,28,3,28,0.06
2013-3-7,53,43,32,34,31,27,87,64,46,30.17,29.96,14,1,14,0.00
2013-3-8,57,44,32,31,28,26,79,55,32,30.22,30.08,15,2,15,0.00
2013-3-9,64,46,29,37,31,26,89,61,30,30.27,30.15,10,1,10,0.00
2013-3-10,68,48,29,38,32,27,96,63,24,30.26,30.13,10,0,10,0.00
2013-3-11,68,52,35,55,45,30,95,76,57,30.17,29.86,9,1,13,0.00
2013-3-12,70,62,51,63,54,34,98,78,48,29.87,29.67,14,1,14,0.81
2013-3-13,58,47,32,36,29,22,94,52,30,30.07,29.87,17,2,17,0.00
2013-3-14,55,40,27,26,22,19,78,52,29,30.18,30.04,13,1,13,0.00
2013-3-15,63,44,24,38,30,21,93,63,35,30.12,29.82,13,1,13,0.00
2013-3-16,79,59,42,52,46,37,92,65,37,29.83,29.58,15,1,15,0.00
2013-3-17,60,52,42,53,46,39,94,83,66,30.09,29.75,13,2,13,0.00
2013-3-18,43,41,39,42,40,37,99,95,90,30.12,29.76,9,1,9,0.50
2013-3-19,68,52,41,48,37,18,98,64,22,29.95,29.74,17,2,17,0.01
2013-3-20,58,46,33,30,22,12,85,42,22,30.05,29.70,12,1,12,0.00
2013-3-21,48,40,32,33,22,13,85,49,30,29.92,29.66,15,2,15,0.00
2013-3-22,55,38,22,30,19,14,80,49,26,30.02,29.90,14,1,14,0.00
2013-3-23,56,44,34,35,30,24,87,62,37,29.99,29.83,6,0,6,0.00
2013-3-24,41,38,32,39,36,29,96,92,80,29.87,29.50,14,1,14,0.71
2013-3-25,38,37,37,37,36,35,96,95,93,29.54,29.49,4,0,5,0.01
2013-3-26,49,42,29,32,29,26,88,62,49,30.04,29.75,3,1,14,0.00
2013-3-27,53,41,30,29,26,23,84,56,34,30.17,30.05,12,1,23,0.00
2013-3-28,58,43,29,31,27,24,80,56,31,30.23,30.08,20,1,20,0.00
2013-3-29,61,44,27,35,29,24,93,60,28,30.27,30.10,13,1,13,0.00
2013-3-30,67,52,38,47,40,33,90,66,37,30.17,30.00,10,0,10,0.00
2013-3-31,69,56,46,62,52,43,98,88,68,30.03,29.73,14,1,14,0.58
2013-4-1,73,60,50,55,48,40,98,70,34,29.88,29.73,16,1,16,0.02
2013-4-2,63,50,34,41,34,29,94,57,28,30.09,29.88,13,1,13,0.00
2013-4-3,63,51,41,36,28,21,79,43,24,30.22,30.06,12,1,12,0.00
2013-4-4,46,42,39,41,35,26,95,77,51,30.28,29.85,13,1,13,0.87
2013-4-5,66,49,39,52,44,38,97,85,50,29.94,29.81,9,1,9,0.02
2013-4-6,66,52,37,44,36,30,96,60,31,30.19,29.94,11,1,11,0.00
2013-4-7,74,56,35,50,42,33,96,65,35,30.21,30.03,11,1,11,0.00
2013-4-8,81,63,47,59,53,45,98,73,42,30.10,29.97,14,1,14,0.00
2013-4-9,87,70,52,62,58,51,98,69,40,30.10,29.97,12,1,12,0.00
2013-4-10,89,72,57,65,60,55,98,70,40,30.02,29.85,14,1,14,0.00
2013-4-11,82,71,61,67,62,58,95,75,51,29.91,29.70,13,1,13,0.00
2013-4-12,83,72,62,71,65,49,98,80,50,29.73,29.51,23,2,23,0.77
2013-4-13,78,63,50,52,45,40,88,55,29,29.92,29.68,14,1,14,0.00
2013-4-14,81,63,42,55,47,40,97,62,27,30.02,29.92,9,0,9,0.00
2013-4-15,71,65,58,62,58,55,97,81,64,30.12,29.91,7,0,7,0.04
2013-4-16,79,67,58,64,60,56,95,81,55,30.22,30.11,8,0,8,0.00
2013-4-17,83,66,54,69,61,53,98,86,58,30.15,30.02,9,0,9,0.00
2013-4-18,81,70,58,65,62,56,98,78,55,30.12,29.95,9,0,9,0.00
2013-4-19,84,71,65,70,66,63,98,86,61,29.96,29.63,27,1,27,0.58
2013-4-20,66,55,44,64,45,35,97,70,35,30.20,29.73,14,0,14,0.05
2013-4-21,64,52,39,46,41,37,95,70,47,30.41,30.20,5,0,5,0.01
2013-4-22,64,52,39,46,40,34,88,66,45,30.40,30.18,3,1,15,0.00
2013-4-23,70,55,48,54,48,45,92,80,53,30.20,30.04,2,0,9,0.02
2013-4-24,77,61,44,60,53,43,98,79,53,30.08,29.89,11,1,11,0.00
2013-4-25,76,62,47,56,49,43,95,66,36,30.19,29.93,8,0,8,0.00
2013-4-26,76,58,41,53,44,38,97,66,28,30.35,30.19,10,0,10,0.00
2013-4-27,76,61,50,58,50,46,92,71,35,30.31,30.18,10,0,10,0.00
2013-4-28,61,57,54,57,54,51,97,91,76,30.19,30.02,5,0,5,0.91
2013-4-29,73,62,56,66,60,56,99,93,75,30.03,29.88,6,0,6,0.48
2013-4-30,66,61,60,61,60,59,98,94,83,30.05,29.91,8,0,8,0.00
2013-5-1,62,59,57,59,57,55,96,93,88,30.23,30.08,3,1,11,0.00
2013-5-2,64,60,55,59,57,53,96,89,83,30.24,30.17,10,1,10,0.00
2013-5-3,69,59,50,58,52,45,96,79,59,30.18,30.07,10,1,10,0.00
2013-5-4,66,57,50,55,50,45,90,78,62,30.13,29.98,12,2,12,0.00
2013-5-5,59,56,51,57,52,47,93,88,80,30.01,29.88,12,1,12,0.01
2013-5-6,67,60,57,64,59,55,100,95,88,29.91,29.74,9,0,9,1.06
2013-5-7,72,58,50,60,53,48,99,85,48,29.87,29.77,10,1,10,0.01
2013-5-8,73,61,53,65,57,52,98,87,60,29.93,29.84,11,0,11,0.15
2013-5-9,82,67,53,65,59,52,98,80,47,29.98,29.90,9,0,9,0.00
2013-5-10,87,70,54,69,61,53,100,77,42,29.98,29.86,13,1,13,0.00
2013-5-11,83,72,66,69,65,60,95,79,55,29.88,29.70,14,1,14,0.04
2013-5-12,75,67,55,65,54,40,95,66,38,29.95,29.70,13,1,13,0.00
2013-5-13,68,57,44,48,42,36,93,61,33,30.11,29.94,12,1,12,0.00
2013-5-14,74,57,38,50,43,36,97,64,33,30.19,30.00,10,1,10,0.00
2013-5-15,89,68,48,68,57,46,98,72,45,30.00,29.82,10,1,10,0.00
2013-5-16,86,73,61,70,64,59,97,76,47,29.90,29.82,10,0,10,0.00
2013-5-17,92,75,60,70,65,59,98,74,40,30.00,29.90,7,0,7,0.00
2013-5-18,80,69,60,70,65,59,98,88,67,30.07,29.98,12,0,12,0.23
2013-5-19,80,70,65,72,67,64,99,93,71,30.07,29.96,10,0,10,0.87
2013-5-20,75,70,67,73,68,66,99,97,89,30.03,29.94,6,0,6,0.32
2013-5-21,84,73,68,77,70,67,99,92,71,29.97,29.86,9,0,9,0.04
2013-5-22,83,73,68,74,69,66,98,88,65,29.95,29.82,11,0,11,0.00
2013-5-23,82,73,67,72,69,66,98,89,70,29.87,29.73,8,0,8,0.17
2013-5-24,71,65,56,66,56,42,96,73,42,30.10,29.73,21,1,21,0.01
2013-5-25,76,59,42,58,46,39,96,66,32,30.20,30.06,17,1,17,0.00
2013-5-26,76,61,49,60,51,44,92,72,44,30.20,30.09,9,0,9,0.00
2013-5-27,84,65,48,63,55,47,98,73,38,30.21,30.07,6,0,6,0.00
2013-5-28,85,72,58,71,64,56,98,78,57,30.17,30.06,7,1,9,0.00
2013-5-29,86,74,60,70,65,58,98,77,54,30.16,30.07,11,1,11,0.00
2013-5-30,89,74,60,71,66,59,98,78,46,30.20,30.08,10,0,10,0.00
2013-5-31,88,75,63,74,68,62,98,80,53,30.15,30.01,11,0,11,0.00
2013-6-1,89,76,65,73,68,63,98,79,52,30.06,29.93,11,1,11,0.00
2013-6-2,87,76,67,75,69,65,96,80,58,29.98,29.81,11,1,11,0.10
2013-6-3,82,73,66,75,70,65,98,91,71,29.88,29.74,8,0,8,0.33
2013-6-4,80,71,65,70,66,63,99,85,65,30.01,29.84,12,0,12,0.01
2013-6-5,81,71,64,69,64,61,97,80,57,30.06,29.93,9,0,9,0.00
2013-6-6,74,71,65,73,68,61,97,91,72,29.95,29.74,8,0,8,0.29
2013-6-7,73,70,69,71,69,68,99,98,93,29.77,29.44,8,1,11,1.89
2013-6-8,83,73,67,74,70,66,99,90,69,30.01,29.74,8,0,8,0.05
2013-6-9,88,76,65,78,71,64,99,85,61,30.08,29.97,6,0,6,0.00
2013-6-10,84,75,72,78,73,70,99,94,75,30.02,29.81,16,1,16,0.90
2013-6-11,86,76,68,73,69,66,95,81,57,29.87,29.81,13,1,13,0.00
2013-6-12,91,77,64,80,71,62,98,84,60,29.90,29.77,9,0,9,0.00
2013-6-13,94,78,68,79,73,66,99,84,54,29.78,29.52,21,1,21,0.11
2013-6-14,81,71,62,67,63,59,96,76,51,29.93,29.64,10,1,10,0.00
2013-6-15,87,72,57,71,63,56,98,77,49,30.05,29.93,9,0,9,0.00
2013-6-16,87,74,60,74,67,58,94,79,59,30.05,29.92,11,1,11,0.00
2013-6-17,87,76,69,77,71,66,94,85,67,29.95,29.84,7,0,7,0.00
2013-6-18,84,74,69,76,71,68,97,90,70,29.89,29.67,14,1,14,0.50
2013-6-19,81,73,65,72,68,64,99,86,66,30.04,29.79,8,0,8,0.00
2013-6-20,83,73,64,70,66,63,98,80,53,30.16,30.03,7,0,7,0.00
2013-6-21,85,71,57,69,61,55,97,74,43,30.18,30.10,11,0,11,0.00
2013-6-22,80,73,65,74,70,63,97,91,76,30.12,30.02,11,0,11,0.05
2013-6-23,86,76,68,76,72,67,99,90,67,30.13,30.04,4,0,4,0.02
2013-6-24,86,76,69,79,73,68,99,89,75,30.13,30.00,9,0,9,0.05
2013-6-25,90,76,68,79,72,66,99,87,64,30.05,29.92,10,1,11,0.00
2013-6-26,90,76,69,79,72,68,98,88,65,29.95,29.81,9,1,9,0.32
2013-6-27,89,77,68,79,73,66,99,89,68,29.86,29.63,11,1,11,0.01
2013-6-28,91,78,71,78,74,70,98,86,60,29.67,29.49,12,1,14,1.01
2013-6-29,85,75,69,78,73,68,99,92,73,29.64,29.52,6,0,6,0.37
2013-6-30,85,74,69,79,72,68,99,95,76,29.78,29.62,11,0,11,4.06
2013-7-1,83,74,69,77,72,69,100,95,79,29.91,29.75,9,0,9,0.71
2013-7-2,75,73,72,74,72,71,99,97,96,30.10,29.90,6,0,6,0.25
2013-7-3,84,76,72,78,74,70,100,96,79,30.17,30.06,6,0,6,0.85
2013-7-4,88,79,72,80,75,71,100,88,67,30.19,30.08,10,0,10,0.01
2013-7-5,90,79,71,79,74,70,99,86,64,30.19,30.07,7,0,7,0.00
2013-7-6,88,79,73,80,75,72,98,88,68,30.17,30.02,7,0,7,0.06
2013-7-7,88,81,67,80,76,66,99,84,71,30.10,29.97,7,0,7,0.00
2013-7-8,90,79,72,79,74,70,98,86,63,30.09,30.00,7,0,7,0.00
2013-7-9,86,77,71,80,74,70,99,91,74,30.08,29.97,7,0,7,0.00
2013-7-10,89,78,72,79,75,70,99,89,70,30.03,29.86,11,1,11,0.07
2013-7-11,80,75,72,76,74,72,99,95,84,29.89,29.80,7,0,9,0.18
2013-7-12,77,73,71,74,72,69,99,95,86,29.94,29.78,8,0,8,0.03
2013-7-13,77,74,70,76,72,69,98,96,92,30.09,29.93,10,0,10,0.15
2013-7-14,88,77,71,79,74,70,99,91,63,30.21,30.08,12,0,12,0.31
2013-7-15,90,78,69,80,74,68,100,88,61,30.24,30.16,5,0,5,0.00
2013-7-16,94,81,68,82,74,67,99,83,59,30.20,30.09,5,0,5,0.00
2013-7-17,92,80,75,81,76,73,98,88,58,30.14,30.07,6,0,6,0.00
2013-7-18,94,85,74,83,78,73,99,82,60,30.05,29.94,9,0,9,0.00
2013-7-19,91,81,74,80,76,72,99,86,64,30.02,29.89,10,1,10,0.00
2013-7-20,90,79,73,80,75,72,97,89,67,29.95,29.83,12,1,12,0.20
2013-7-21,88,77,72,80,74,71,99,91,70,29.91,29.81,9,0,9,0.03
2013-7-22,88,78,71,79,74,70,99,89,67,29.87,29.74,8,1,8,0.00
2013-7-23,90,80,73,79,75,72,97,85,66,29.77,29.64,2,1,9,0.00
2013-7-24,93,78,70,80,73,69,98,84,56,29.76,29.65,2,0,9,0.00
2013-7-25,82,74,68,73,70,66,95,86,71,29.95,29.73,7,0,7,0.00
2013-7-26,86,74,62,73,67,61,99,81,55,30.03,29.93,6,0,6,0.00
2013-7-27,86,72,65,76,69,64,99,90,64,29.97,29.85,9,0,9,0.36
2013-7-28,86,76,68,77,72,67,99,89,62,29.92,29.84,6,0,6,0.04
2013-7-29,87,76,68,74,70,66,99,83,56,30.07,29.91,7,0,7,0.01
2013-7-30,89,74,61,76,66,60,98,79,51,30.14,30.05,6,0,6,0.00
2013-7-31,83,78,70,77,74,69,99,88,75,30.06,29.91,18,0,18,0.29
2013-8-1,82,74,70,77,72,69,99,94,80,29.93,29.78,6,0,6,0.26
2013-8-2,88,77,67,78,72,66,99,86,62,29.93,29.82,5,0,5,0.01
2013-8-3,90,78,70,80,74,69,99,89,65,29.93,29.82,10,0,10,0.08
2013-8-4,86,76,67,74,70,65,99,85,58,29.94,29.80,9,0,9,0.01
2013-8-5,84,73,63,74,67,62,99,84,56,30.01,29.91,7,0,7,0.00
2013-8-6,81,73,67,73,69,66,98,88,69,29.98,29.91,9,0,9,0.26
2013-8-7,84,75,68,76,71,67,98,89,69,30.02,29.93,7,0,7,0.00
2013-8-8,87,77,69,78,73,68,99,89,66,29.99,29.90,6,0,6,0.00
2013-8-9,89,78,71,79,75,70,99,89,69,29.97,29.89,10,1,10,0.00
2013-8-10,92,78,72,81,75,72,99,90,65,30.02,29.92,12,1,12,0.02
2013-8-11,91,78,70,80,75,70,99,89,63,30.03,29.91,6,0,7,0.00
2013-8-12,90,80,72,80,75,71,99,86,58,29.97,29.84,8,0,8,0.00
2013-8-13,88,77,69,81,74,69,99,93,72,29.88,29.69,10,0,10,0.33
2013-8-14,75,70,62,73,68,60,99,93,78,30.01,29.74,7,0,9,0.00
2013-8-15,76,65,58,66,61,58,98,87,59,30.09,29.99,8,0,8,0.00
2013-8-16,69,64,58,66,61,57,99,93,82,30.10,30.01,5,0,5,0.00
2013-8-17,71,66,61,70,66,60,99,97,91,30.10,30.03,5,0,5,0.23
2013-8-18,80,72,68,74,70,66,99,93,77,30.12,30.03,11,0,11,0.02
2013-8-19,73,69,67,72,69,66,99,98,94,30.11,30.01,4,0,4,0.16
2013-8-20,70,70,70,70,70,70,99,99,99,30.12,30.03,0,0,0,0.00
2013-8-21,86,73,69,78,71,69,99,95,69,30.16,30.01,13,0,13,0.20
2013-8-22,86,76,69,77,73,69,100,90,65,30.07,29.91,7,0,7,0.00
2013-8-23,86,76,67,77,72,66,99,89,66,29.99,29.84,9,0,9,0.00
2013-8-24,82,71,62,67,64,61,97,80,51,30.22,29.99,11,1,11,0.00
2013-8-25,79,67,57,66,61,56,98,84,53,30.31,30.20,11,1,11,0.00
2013-8-26,82,66,53,66,59,52,98,83,45,30.24,30.04,6,0,6,0.00
2013-8-27,87,72,59,77,68,58,98,88,63,30.06,29.88,5,0,5,0.00
2013-8-28,82,75,67,78,73,66,99,95,79,29.90,29.79,4,0,4,0.00
2013-8-29,86,78,71,77,74,70,98,87,69,29.93,29.76,9,1,9,0.00
2013-8-30,87,74,65,72,68,64,99,84,51,29.98,29.85,5,0,5,0.00
2013-8-31,88,74,64,76,70,64,98,88,63,29.89,29.77,9,0,9,0.00
2013-9-1,89,76,69,79,73,68,100,90,69,29.82,29.68,10,0,10,0.16
2013-9-2,87,76,69,78,73,69,99,92,70,29.81,29.71,7,0,7,0.00
2013-9-3,89,77,71,78,73,70,99,89,62,29.85,29.72,7,0,7,0.00
2013-9-4,84,74,63,75,70,62,99,89,66,30.00,29.85,8,0,8,0.01
2013-9-5,86,73,63,71,66,59,99,83,43,30.02,29.94,9,0,9,0.00
2013-9-6,83,70,61,67,63,59,97,79,53,30.09,30.00,9,0,9,0.00
2013-9-7,83,68,56,71,63,55,98,85,56,30.06,29.89,6,0,6,0.00
2013-9-8,86,72,61,71,64,60,99,81,45,29.91,29.83,7,0,7,0.00
2013-9-9,88,74,63,73,68,62,98,83,54,30.07,29.90,9,0,9,0.00
2013-9-10,89,75,64,73,69,64,99,83,54,30.15,30.05,6,0,6,0.00
2013-9-11,90,74,64,75,69,64,98,86,56,30.12,29.99,6,0,6,0.00
2013-9-12,91,76,67,75,70,66,98,84,54,30.00,29.72,11,0,11,0.00
2013-9-13,84,74,66,70,65,54,98,76,52,29.81,29.67,11,0,11,0.00
2013-9-14,76,66,56,60,55,50,96,70,48,30.06,29.81,12,1,12,0.00
2013-9-15,80,65,52,66,58,51,97,83,52,30.16,30.03,5,0,5,0.00
2013-9-16,85,73,62,73,65,60,99,80,49,30.10,29.95,12,1,12,0.06
2013-9-17,77,67,58,61,56,53,90,71,45,30.23,30.10,13,1,13,0.00
2013-9-18,74,60,49,56,52,46,100,78,40,30.23,30.10,9,0,9,0.00
2013-9-19,77,64,51,66,58,50,99,85,60,30.12,30.00,6,0,6,0.00
2013-9-20,69,66,64,68,65,62,99,96,90,30.01,29.88,4,0,4,0.24
2013-9-21,78,70,64,73,68,64,99,95,80,29.89,29.64,7,0,7,0.93
2013-9-22,76,66,57,66,62,56,99,88,62,29.82,29.62,12,1,13,0.57
2013-9-23,72,60,52,61,55,51,98,85,59,30.00,29.82,9,0,9,0.00
2013-9-24,75,61,51,65,57,50,98,89,62,30.03,29.87,6,0,6,0.00
2013-9-25,71,61,51,65,59,50,99,92,69,29.89,29.79,5,0,5,0.00
2013-9-26,76,64,56,62,59,55,98,84,52,29.96,29.79,6,0,9,0.00
2013-9-27,73,60,50,62,56,50,100,87,62,30.11,29.95,12,1,12,0.00
2013-9-28,71,59,48,60,54,47,98,86,59,30.18,30.08,11,0,12,0.00
2013-9-29,72,59,50,60,54,49,98,86,56,30.10,29.96,9,0,9,0.00
2013-9-30,74,58,48,62,55,47,98,89,56,30.03,29.92,5,0,5,0.00
2013-10-1,80,62,50,68,58,49,98,87,55,30.05,29.94,5,0,5,0.00
2013-10-2,82,66,54,67,60,54,98,85,51,30.06,29.96,7,0,7,0.00
2013-10-3,82,67,56,72,63,55,98,87,54,30.05,29.97,7,0,7,0.00
2013-10-4,85,69,58,70,64,58,99,87,54,30.06,29.96,6,0,6,0.00
2013-10-5,86,70,59,72,65,58,99,86,54,30.04,29.94,5,0,5,0.00
2013-10-6,83,70,59,72,67,59,99,90,65,29.99,29.84,9,0,9,0.00
2013-10-7,72,70,64,72,69,60,99,98,88,29.91,29.77,5,0,9,1.28
2013-10-8,64,60,55,61,52,48,94,77,67,30.12,29.89,15,2,15,0.02
2013-10-9,64,58,55,58,54,51,96,86,79,30.10,30.01,13,1,13,0.16
2013-10-10,61,57,54,60,56,53,98,97,94,30.01,29.86,7,0,7,0.39
2013-10-11,69,63,60,65,61,58,98,93,80,29.89,29.83,6,0,6,0.00
2013-10-12,68,64,60,66,62,59,98,95,88,30.01,29.88,3,0,5,0.03
2013-10-13,68,64,62,65,63,61,97,94,90,30.12,30.00,7,0,7,0.01
2013-10-14,65,62,58,63,61,56,98,95,89,30.16,30.09,9,1,9,0.08
2013-10-15,72,62,53,64,58,52,98,89,70,30.12,29.98,10,0,10,0.00
2013-10-16,69,64,60,64,62,59,98,93,80,29.99,29.88,3,0,3,0.00
2013-10-17,73,66,59,67,63,58,99,92,76,29.89,29.76,7,0,7,0.00
2013-10-18,67,62,55,65,57,51,97,84,64,29.96,29.80,12,0,12,0.00
2013-10-19,69,62,58,65,60,57,98,93,85,29.90,29.74,6,0,6,0.01
2013-10-20,62,54,43,58,48,41,100,82,51,30.05,29.82,9,0,9,0.00
2013-10-21,66,51,37,55,46,36,98,86,56,30.10,29.94,5,0,5,0.00
2013-10-22,64,56,50,61,55,49,98,95,87,29.94,29.73,3,0,3,0.00
2013-10-23,67,58,47,58,48,36,99,73,39,29.94,29.61,14,1,14,0.00
2013-10-24,58,46,38,44,38,34,94,75,46,30.11,29.94,11,0,12,0.00
2013-10-25,55,46,36,41,36,31,93,71,42,30.31,30.11,12,1,12,0.00
2013-10-26,59,42,29,42,34,27,96,77,43,30.31,30.01,11,0,11,0.00
2013-10-27,68,51,39,52,44,37,96,78,46,30.06,29.97,11,0,11,0.00
2013-10-28,64,53,42,58,50,41,98,91,72,30.19,30.05,4,0,4,0.00
2013-10-29,70,57,48,61,53,47,98,89,68,30.26,30.17,6,0,6,0.00
2013-10-30,73,59,49,63,55,48,98,90,66,30.23,30.08,9,0,9,0.00
2013-10-31,74,62,53,64,58,52,98,87,64,30.12,29.84,11,0,11,0.00
2013-11-1,72,68,60,68,65,59,98,92,82,29.85,29.60,12,1,12,0.91
2013-11-2,70,60,50,59,54,45,98,80,43,29.86,29.62,9,1,14,0.00
2013-11-3,63,50,39,46,41,38,96,75,45,30.30,29.86,10,0,10,0.00
2013-11-4,55,44,35,41,36,34,96,78,46,30.48,30.29,13,1,13,0.00
2013-11-5,57,48,37,50,43,34,92,82,68,30.47,30.35,9,1,9,0.00
2013-11-6,70,55,43,59,50,41,97,87,62,30.36,30.03,5,0,5,0.00
2013-11-7,69,59,48,62,54,36,99,83,57,30.04,29.85,12,1,12,0.01
2013-11-8,57,44,31,37,33,29,100,68,35,30.26,30.03,12,1,12,0.00
2013-11-9,58,42,28,42,34,27,97,77,39,30.32,30.12,5,0,10,0.00
2013-11-10,72,51,35,44,38,32,96,68,30,30.17,29.99,14,1,14,0.00
2013-11-11,58,44,30,38,33,28,95,70,38,30.28,30.08,7,0,7,0.00
2013-11-12,61,41,32,42,35,28,96,81,46,30.36,29.98,10,1,16,0.01
2013-11-13,45,34,27,28,23,20,88,65,39,30.47,30.35,11,1,11,0.00
2013-11-14,57,46,21,32,28,20,94,52,30,30.42,30.27,7,1,7,0.00
2013-11-15,50,50,50,31,31,31,47,47,47,30.29,30.12,0,0,0,0.00
2013-11-16,68,55,49,59,44,31,98,69,47,30.20,30.11,5,0,5,0.00
2013-11-17,70,60,53,65,58,53,99,93,75,30.13,29.82,6,0,6,0.07
2013-11-18,75,66,53,67,55,34,99,73,39,29.89,29.71,12,1,12,0.02
2013-11-19,56,48,37,36,32,30,85,57,38,30.24,29.88,10,1,10,0.00
2013-11-20,54,44,37,39,34,29,88,68,52,30.37,30.24,12,1,12,0.00
2013-11-21,60,50,40,50,44,37,91,80,67,30.42,30.31,9,1,9,0.00
2013-11-22,71,58,45,62,54,44,97,87,72,30.33,30.01,11,0,11,0.02
2013-11-23,60,55,43,60,46,25,98,72,42,30.11,29.96,8,0,8,0.02
2013-11-24,43,33,22,26,14,6,80,47,27,30.49,30.10,9,2,13,0.00
2013-11-25,43,30,17,25,17,11,91,64,28,30.54,30.31,6,0,6,0.00
2013-11-26,64,44,36,63,37,19,100,78,45,30.32,29.51,13,1,13,1.15
2013-11-27,47,40,28,46,37,22,98,89,65,30.11,29.43,12,1,12,0.46
2013-11-28,44,31,21,30,23,18,94,75,45,30.43,30.11,9,0,9,0.00
2013-11-29,50,34,22,32,26,21,95,77,43,30.57,30.41,9,0,9,0.00
2013-11-30,48,35,26,36,29,24,95,81,60,30.58,30.31,9,1,9,0.00
2013-12-1,59,40,26,44,34,25,96,82,46,30.31,29.96,4,0,5,0.00
2013-12-2,60,45,36,47,41,35,97,87,60,29.95,29.75,4,0,4,0.00
2013-12-3,54,44,31,49,41,30,98,91,77,29.93,29.80,3,0,3,0.00
2013-12-4,64,55,49,59,53,48,98,93,82,30.02,29.91,5,0,5,0.00
2013-12-5,67,60,51,65,60,51,99,97,91,30.06,29.96,6,0,6,0.02
2013-12-6,78,69,63,67,64,62,97,86,67,30.00,29.89,17,1,17,0.01
2013-12-7,68,50,44,66,46,36,97,86,73,30.37,29.91,14,2,14,0.25
2013-12-8,44,37,34,36,33,31,96,88,68,30.40,30.22,10,1,10,0.07
2013-12-9,46,40,35,45,39,34,98,97,96,30.23,30.00,4,0,4,0.18
2013-12-10,49,44,28,46,41,27,98,92,62,30.26,29.84,11,0,11,0.45
2013-12-11,49,33,23,35,27,21,97,82,47,30.40,30.23,7,0,7,0.00
2013-12-12,44,33,24,28,24,20,96,75,39,30.36,30.21,10,1,10,0.00
2013-12-13,52,33,21,34,25,19,94,76,36,30.34,30.21,9,0,9,0.00
2013-12-14,47,40,34,44,38,32,97,93,63,30.25,29.71,11,0,11,0.85
2013-12-15,54,43,30,45,38,28,100,83,55,30.01,29.64,13,1,13,0.03
2013-12-16,55,37,26,41,32,25,96,84,51,30.12,30.01,6,0,6,0.00
2013-12-17,61,44,29,43,36,28,98,76,47,30.06,29.82,15,1,15,0.00
2013-12-18,50,40,28,34,25,21,89,57,32,30.24,29.96,11,1,11,0.00
2013-12-19,62,40,25,37,29,23,91,69,28,30.27,30.15,14,0,14,0.00
2013-12-20,66,49,37,56,44,32,96,83,63,30.18,30.05,12,0,12,0.00
2013-12-21,73,56,42,67,54,42,98,92,70,30.09,29.97,11,0,12,0.00
2013-12-22,77,70,63,69,66,62,99,87,69,30.02,29.94,15,1,15,0.17
2013-12-23,66,60,47,66,59,39,99,97,76,30.08,29.90,13,0,13,1.37
2013-12-24,47,41,30,40,30,18,79,65,48,30.39,30.05,14,1,14,0.00
2013-12-25,39,29,22,23,18,14,91,64,38,30.49,30.34,9,0,9,0.00
2013-12-26,53,35,23,35,29,21,94,81,40,30.35,30.18,6,0,6,0.02
2013-12-27,52,34,23,32,26,22,95,77,34,30.40,30.30,6,0,6,0.00
2013-12-28,57,39,23,41,31,21,95,76,36,30.35,30.09,4,0,4,0.00
2013-12-29,57,47,40,56,46,40,99,95,76,30.09,29.64,7,1,14,1.68
2013-12-30,54,43,33,47,40,33,99,90,68,30.07,29.85,4,0,4,0.00
2013-12-31,51,41,29,41,33,26,94,77,39,30.29,30.05,13,1,13,0.00
2014-1-1,50,37,29,35,30,27,96,80,43,30.36,30.09,6,0,6,0.00
2014-1-2,47,42,34,46,39,31,100,92,80,30.09,29.52,14,0,14,0.30